Flight Track Log - Related Links

Times and Time Zones

All times are in EDT time to prevent confusion due to time zone crossing. See the GJS3649 flight status page for this flight to view local times or setup timezone preferences in your user account.

Time Position Orientation Groundspeed Altitude Reporting Facility
EDT Latitude Longitude Course Direction KTS MPH feet Rate Location/Type
Sat 08:05:55 PM 36.8847 -76.2150 300° West 155 178 700  Level Washington Center
Sat 08:07:21 PM 36.8739 -76.2850 259° West 162 186 4,000 2,408 Climbing Washington Center
Sat 08:08:22 PM 36.9172 -76.3608 306° West 199 229 6,600 2,705 Climbing Washington Center
Sat 08:09:00 PM 37.0663 -76.5592 300° West  Level FlightAware Approximate
Sat 08:09:23 PM 36.9606 -76.4392 305° West 235 270 9,500  Level Washington Center
Sat 08:10:00 PM 37.1089 -76.6528 300° West  Level FlightAware Approximate
Sat 08:10:24 PM 37.0119 -76.5308 305° West 281 323 12,700  Level Washington Center
Sat 08:11:00 PM 37.1515 -76.7465 300° West  Level FlightAware Approximate
Sat 08:11:22 PM 37.0550 -76.6119 304° West 287 330 14,000  Level Washington Center
Sat 08:12:24 PM 37.1003 -76.6933 305° West 287 330 14,100  Climbing Washington Center
Sat 08:13:24 PM 37.1453 -76.7747 305° West 287 330 14,000 -50 Descending Washington Center
Sat 08:14:24 PM 37.1903 -76.8589 304° West 287 330 14,000  Level Washington Center
Sat 08:15:24 PM 37.2272 -76.9247 305° West 287 330 14,000 51 Level Washington Center
Sat 08:16:22 PM 37.2803 -77.0275 303° West 287 330 14,100 51 Climbing Washington Center
Sat 08:17:22 PM 37.3253 -77.1092 305° West 282 325 14,100  Level Washington Center
Sat 08:18:22 PM 37.3786 -77.1756 315° West 294 338 14,100  Level Washington Center
Sat 08:19:23 PM 37.4381 -77.2447 317° Northwest 294 338 14,100  Level Washington Center
Sat 08:20:23 PM 37.4997 -77.3169 317° Northwest 294 338 14,100 -202 Level Washington Center
Sat 08:21:22 PM 37.5783 -77.3633 335° Northwest 299 344 13,700 -504 Descending Washington Center
Sat 08:22:22 PM 37.6614 -77.3914 345° North 299 344 13,100 -397 Descending Washington Center
Sat 08:23:23 PM 37.7489 -77.3986 356° North 306 352 12,900 -595 Descending Washington Center
Sat 08:24:23 PM 37.8361 -77.4086 355° North 306 352 11,900 -992 Descending Washington Center
Sat 08:25:24 PM 37.9194 -77.4158 356° North 306 352 10,900 -908 Descending Washington Center
Sat 08:26:22 PM 38.0050 -77.4233 356° North 306 352 10,100 -458 Descending Washington Center
Sat 08:27:22 PM 38.0922 -77.4361 353° North 306 352 10,000 -49 Descending Washington Center
Sat 08:28:24 PM 38.1736 -77.4433 356° North 296 341 10,000  Level Washington Center
Sat 08:29:22 PM 38.2556 -77.4083 19° North 290 334 10,000 -353 Level Washington Center
Sat 08:30:23 PM 38.3256 -77.4522 334° Northwest 274 315 9,300 -1,033 Descending Washington Center
Sat 08:31:24 PM 38.3894 -77.5094 325° Northwest 272 313 7,900 -1,361 Descending Washington Center
Sat 08:32:22 PM 38.4425 -77.5772 315° West 272 313 6,600 -1,311 Descending Washington Center
Sat 08:33:23 PM 38.4978 -77.6450 316° Northwest 272 313 5,300 1,686 Descending Washington Center
Sat 08:34:23 PM 38.5489 -77.6942 323° Northwest 263 303 10,000 -151 Climbing Washington Center
Sat 08:35:22 PM 38.6192 -77.7281 339° North 258 297 5,000 -2,500 Descending Washington Center
Sat 08:36:23 PM 38.6969 -77.6931 19° North 247 284 5,000 44 Level Washington Center
Sat 08:37:39 PM 38.7667 -77.6000 46° Northeast 285 328 5,100 44 Climbing Potomac TRACON
Sat 08:38:39 PM 38.8167 -77.5333 46° Northeast 280 322 5,100  Level Potomac TRACON
Sat 08:39:39 PM 38.8833 -77.4500 44° Northeast 275 316 5,100 -158 Level Potomac TRACON
Sat 08:40:33 PM 38.9167 -77.4000 49° Northeast 249 287 4,800 -526 Descending Potomac TRACON
Sat 08:41:33 PM 38.9833 -77.3667 21° North 224 258 4,100 -347 Descending Potomac TRACON
Sat 08:42:34 PM 39.0333 -77.3500 15° North 194 223 4,100 -397 Level Potomac TRACON
Sat 08:43:34 PM 39.0833 -77.3500 360° North 196 226 3,300 -500 Descending Potomac TRACON
Sat 08:44:34 PM 39.1000 -77.4000 293° West 193 222 3,100 -650 Descending Potomac TRACON
Sat 08:45:34 PM 39.0500 -77.4333 207° Southwest 183 211 2,000 -1,100 Descending Potomac TRACON

Login

Don't have an account? Register now (free) for customized features, flight alerts, and more!